Delta Billie — WDE8059 — position and weather

sailwx.info

Track history (hours):
 
Tides and Currents Weather Stations Pressure Air Temp Water Temp Dewpoint Dewpoint Depression Visibility Wind Speed Wind Dir Waves Ship Positions

Delta Billie

Owner: Baydelta Maritime, San Francicso, CA. More information available from US FCC via Universal Licensing System and Coast Guard Vessel Documentation Center.

Last reported at 2017-May-25 16:41 UTC. Time now 2017-May-26 00:00 UTC.
Position N 38°03' W 122°11'.

Length 30 m; draft 5.5 m.

Type: Towing. MMSI: 367401030.

Date/timePositionNaut miles runAvg speedWind from/ knotsBaromVisibWave heightAir tempDewpointWater temp
2017-May-25 16:41N 38°03' W 122°11'2 8.0
2017-May-25 16:27N 38°04' W 122°13'4 8.0
2017-May-25 15:59N 38°03' W 122°18'5 8.0
2017-May-25 15:19N 38°01' W 122°24'3 8.4
2017-May-25 15:00N 37°59' W 122°26'4 8.1
2017-May-25 14:30N 37°55' W 122°25'7 7.3
2017-May-25 13:30N 37°48' W 122°20'1 1.1
2017-May-25 13:00N 37°49' W 122°20'1 1.8
2017-May-25 12:31N 37°48' W 122°21'1 2.4
2017-May-25 12:01N 37°48' W 122°20'1 1.1
2017-May-25 11:31N 37°48' W 122°19'3 5.0
2017-May-25 11:00N 37°48' W 122°22'2 3.0
2017-May-25 10:30N 37°48' W 122°24'0 0.0
2017-May-25 10:00N 37°48' W 122°24'0 0.0
2017-May-25 09:30N 37°48' W 122°24'0 0.0
2017-May-25 09:00N 37°48' W 122°24'0 0.0
2017-May-25 08:30N 37°48' W 122°24'0 0.0
2017-May-25 08:00N 37°48' W 122°24'0 0.0
2017-May-25 07:30N 37°48' W 122°24'0 0.0
2017-May-25 07:00N 37°48' W 122°24'0 0.0
2017-May-25 06:30N 37°48' W 122°24'0 0.0
2017-May-25 06:00N 37°48' W 122°24'0 0.0
2017-May-25 05:30N 37°48' W 122°24'0 0.0
2017-May-25 05:00N 37°48' W 122°24'0 0.0
2017-May-25 04:30N 37°48' W 122°24'0 0.0
2017-May-25 04:00N 37°48' W 122°24'0 0.0
2017-May-25 03:30N 37°48' W 122°24'0 0.0
2017-May-25 03:00N 37°48' W 122°24'0 0.0
2017-May-25 02:30N 37°48' W 122°24'0 0.2
2017-May-25 02:00N 37°48' W 122°24'0 0.9
2017-May-25 01:31N 37°48' W 122°23'1 1.9
2017-May-25 01:00N 37°49' W 122°23'1 2.3
2017-May-25 00:30N 37°49' W 122°24'1 1.3
2017-May-25 00:00N 37°48' W 122°24'0 0.1
2017-May-24 23:30N 37°48' W 122°24'0 0.0
2017-May-24 23:00N 37°48' W 122°24'0 0.0
2017-May-24 22:30N 37°48' W 122°24'0 0.0
2017-May-24 22:00N 37°48' W 122°24'0 0.0
2017-May-24 21:30N 37°48' W 122°24'0 0.0
2017-May-24 21:00N 37°48' W 122°24'0 0.0
2017-May-24 20:30N 37°48' W 122°24'0 0.0
2017-May-24 20:00N 37°48' W 122°24'0 0.0
2017-May-24 19:30N 37°48' W 122°24'0 0.0
2017-May-24 19:00N 37°48' W 122°24'0 0.0
2017-May-24 18:30N 37°48' W 122°24'0 0.0
2017-May-24 18:00N 37°48' W 122°24'0 0.0
2017-May-24 17:30N 37°48' W 122°24'0 0.0
2017-May-24 17:00N 37°48' W 122°24'0 0.0
2017-May-24 16:30N 37°48' W 122°24'0 0.0
2017-May-24 16:00N 37°48' W 122°24'0 0.0
2017-May-24 15:30N 37°48' W 122°24'0 0.0
2017-May-24 15:00N 37°48' W 122°24'1 2.7
2017-May-24 14:30N 37°48' W 122°22'4 3.9
2017-May-24 13:30N 37°48' W 122°17'2 3.2
2017-May-24 13:00N 37°48' W 122°19'2 4.5
2017-May-24 12:30N 37°47' W 122°22'1 1.1
2017-May-24 12:00N 37°47' W 122°23'0 0.8
2017-May-24 11:30N 37°47' W 122°23'0 0.0
2017-May-24 11:00N 37°47' W 122°23'0 0.4
2017-May-24 10:31N 37°47' W 122°23'4 8.5
2017-May-24 10:00N 37°52' W 122°24'612.7
2017-May-24 09:30N 37°58' W 122°26'611.4
2017-May-24 09:00N 38°02' W 122°21'510.1
2017-May-24 08:30N 38°04' W 122°15'5 8.5
2017-May-24 07:56N 38°02' W 122°09'1 2.6
2017-May-24 07:30N 38°02' W 122°08'0 0.1
2017-May-24 07:00N 38°02' W 122°08'2 0.7
2017-May-24 04:02N 38°03' W 122°10'1 7.5
2017-May-24 03:56N 38°03' W 122°11'3 6.8
2017-May-24 03:28N 38°04' W 122°15'4 7.5
2017-May-24 02:59N 38°03' W 122°20'4 8.0
2017-May-24 02:30N 38°01' W 122°24'5 9.3
2017-May-24 02:00N 37°57' W 122°27'5 9.3
2017-May-24 01:30N 37°52' W 122°25'510.1
2017-May-24 01:00N 37°48' W 122°23'3 6.8
2017-May-24 00:31N 37°45' W 122°21'0 0.2
2017-May-24 00:00N 37°45' W 122°21'3 5.7
2017-May-23 23:30N 37°47' W 122°23'1 2.4
2017-May-23 23:00N 37°48' W 122°24'0 0.0
2017-May-23 22:30N 37°48' W 122°24'0 0.0
2017-May-23 22:00N 37°48' W 122°24'0 0.0
2017-May-23 21:30N 37°48' W 122°24'0 0.0
2017-May-23 21:00N 37°48' W 122°24'0 0.0
2017-May-23 20:30N 37°48' W 122°24'0 0.0
2017-May-23 20:00N 37°48' W 122°24'0 0.0
2017-May-23 19:30N 37°48' W 122°24'0 0.0
2017-May-23 19:00N 37°48' W 122°24'0 0.0
2017-May-23 18:30N 37°48' W 122°24'3 5.3
2017-May-23 18:00N 37°51' W 122°24'4 7.3
2017-May-23 17:29N 37°55' W 122°24'2 4.0
2017-May-23 17:00N 37°55' W 122°22'0 0.0
2017-May-23 16:30N 37°55' W 122°22'0 0.0
2017-May-23 16:00N 37°55' W 122°22'0 0.0
2017-May-23 15:30N 37°55' W 122°22'0 0.0
2017-May-23 15:00N 37°55' W 122°22'2 4.4
2017-May-23 14:30N 37°55' W 122°25'6 6.5
2017-May-23 13:30N 37°48' W 122°24'1 1.7
2017-May-23 13:00N 37°48' W 122°23'3 5.4
2017-May-23 12:30N 37°45' W 122°23'0 0.2
2017-May-23 12:00N 37°45' W 122°23'3 5.7
2017-May-23 11:30N 37°48' W 122°23'1 1.3
2017-May-23 11:00N 37°48' W 122°24'0 0.0
2017-May-23 10:30N 37°48' W 122°24'0 0.0
2017-May-23 10:00N 37°48' W 122°24'0 0.0
2017-May-23 09:30N 37°48' W 122°24'0 0.0
2017-May-23 09:00N 37°48' W 122°24'0 0.0
2017-May-23 08:30N 37°48' W 122°24'0 0.0
2017-May-23 08:00N 37°48' W 122°24'0 0.0
2017-May-23 07:30N 37°48' W 122°24'0 0.0
2017-May-23 07:00N 37°48' W 122°24'0 0.0
2017-May-23 06:30N 37°48' W 122°24'0 0.0
2017-May-23 06:00N 37°48' W 122°24'0 0.0
2017-May-23 05:30N 37°48' W 122°24'0 0.0
2017-May-23 05:00N 37°48' W 122°24'0 0.0
2017-May-23 04:30N 37°48' W 122°24'0 0.0
2017-May-23 04:00N 37°48' W 122°24'0 0.0
2017-May-23 03:30N 37°48' W 122°24'0 0.0
2017-May-23 03:00N 37°48' W 122°24'0 0.0
2017-May-23 02:30N 37°48' W 122°24'0 0.0
2017-May-23 02:00N 37°48' W 122°24'0 0.0
2017-May-23 01:30N 37°48' W 122°24'0 0.0
2017-May-23 01:00N 37°48' W 122°24'0 0.0
2017-May-23 00:30N 37°48' W 122°24'0 0.0
2017-May-23 00:00N 37°48' W 122°24'0 0.0
2017-May-22 23:30N 37°48' W 122°24'0 0.0
2017-May-22 23:00N 37°48' W 122°24'3 7.0
2017-May-22 22:30N 37°49' W 122°20'0 0.2
2017-May-22 22:00N 37°49' W 122°20'1 1.8
2017-May-22 21:30N 37°48' W 122°21'0 0.0
2017-May-22 21:00N 37°48' W 122°21'0 0.0
2017-May-22 20:30N 37°48' W 122°21'1 1.4
2017-May-22 20:00N 37°49' W 122°21'4 7.0
2017-May-22 19:30N 37°52' W 122°24'4 8.8
2017-May-22 19:00N 37°56' W 122°26'4 8.6
2017-May-22 18:30N 38°00' W 122°25'4 7.8
2017-May-22 18:00N 38°02' W 122°21'4 7.9
2017-May-22 17:30N 38°03' W 122°16'0 0.6
2017-May-22 17:00N 38°03' W 122°16'0 0.1
2017-May-22 16:30N 38°03' W 122°16'1 2.1
2017-May-22 15:59N 38°03' W 122°17'5 9.2
2017-May-22 15:29N 38°02' W 122°22'610.7
2017-May-22 14:54N 37°56' W 122°27'7 7.5
2017-May-22 14:00N 37°50' W 122°28'2 4.8
2017-May-22 13:30N 37°48' W 122°30'0 0.9
2017-May-22 13:00N 37°48' W 122°30'3 6.3
2017-May-22 12:30N 37°49' W 122°26'2 4.3
2017-May-22 12:00N 37°48' W 122°24'0 0.0
2017-May-22 11:30N 37°48' W 122°24'0 0.0
2017-May-22 11:00N 37°48' W 122°24'0 0.0
2017-May-22 10:30N 37°48' W 122°24'0 0.1
2017-May-22 10:00N 37°48' W 122°24'0 0.1
2017-May-22 09:30N 37°48' W 122°24'0 0.0
2017-May-22 09:00N 37°48' W 122°24'0 0.0
2017-May-22 08:30N 37°48' W 122°24'0 0.0
2017-May-22 08:00N 37°48' W 122°24'0 0.0
2017-May-22 07:30N 37°48' W 122°24'0 0.0
2017-May-22 07:00N 37°48' W 122°24'0 0.0
2017-May-22 06:30N 37°48' W 122°24'0 0.0
2017-May-22 06:00N 37°48' W 122°24'0 0.0
2017-May-22 05:30N 37°48' W 122°24'0 0.0
2017-May-22 05:00N 37°48' W 122°24'0 0.0
2017-May-22 04:30N 37°48' W 122°24'0 0.0
2017-May-22 04:00N 37°48' W 122°24'0 0.0
2017-May-22 03:30N 37°48' W 122°24'0 0.0
2017-May-22 03:00N 37°48' W 122°24'0 0.0
2017-May-22 02:30N 37°48' W 122°24'0 0.0
2017-May-22 02:00N 37°48' W 122°24'0 0.0
2017-May-22 01:30N 37°48' W 122°24'0 0.0
2017-May-22 01:00N 37°48' W 122°24'0 0.0
2017-May-22 00:30N 37°48' W 122°24'0 0.0
2017-May-22 00:00N 37°48' W 122°24'0 0.0
2017-May-21 23:30N 37°48' W 122°24'0 0.0
2017-May-21 23:00N 37°48' W 122°24'0 0.0
2017-May-21 22:30N 37°48' W 122°24'0 0.0
2017-May-21 22:00N 37°48' W 122°24'0 0.0
2017-May-21 21:30N 37°48' W 122°24'0 0.0
2017-May-21 21:00N 37°48' W 122°24'0 0.0
2017-May-21 20:30N 37°48' W 122°24'0 0.0
2017-May-21 20:00N 37°48' W 122°24'0 0.0
2017-May-21 19:30N 37°48' W 122°24'0 0.0
2017-May-21 19:00N 37°48' W 122°24'0 0.0
2017-May-21 18:30N 37°48' W 122°24'0 0.0
2017-May-21 18:00N 37°48' W 122°24'0 0.0
2017-May-21 17:30N 37°48' W 122°24'0 0.0
2017-May-21 17:00N 37°48' W 122°24'0 0.0
2017-May-21 16:30N 37°48' W 122°24'0 0.0
2017-May-21 16:00N 37°48' W 122°24'0 0.0
2017-May-21 15:30N 37°48' W 122°24'0 0.0
2017-May-21 15:00N 37°48' W 122°24'0 0.0
2017-May-21 14:00N 37°48' W 122°24'3 5.6
2017-May-21 13:30N 37°48' W 122°20'1 1.2
2017-May-21 13:00N 37°49' W 122°20'1 2.7
2017-May-21 12:31N 37°48' W 122°21'2 3.3
2017-May-21 12:00N 37°48' W 122°23'0 1.0
2017-May-21 11:30N 37°48' W 122°24'0 0.0
2017-May-21 11:00N 37°48' W 122°24'0 0.0
2017-May-21 10:30N 37°48' W 122°24'0 0.0
2017-May-21 10:00N 37°48' W 122°24'0 0.0
2017-May-21 09:30N 37°48' W 122°24'0 0.0
2017-May-21 09:00N 37°48' W 122°24'0 0.0
2017-May-21 08:30N 37°48' W 122°24'0 0.0
2017-May-21 08:00N 37°48' W 122°24'0 0.0
2017-May-21 07:30N 37°48' W 122°24'0 0.0
2017-May-21 07:00N 37°48' W 122°24'0 0.0
2017-May-21 06:30N 37°48' W 122°24'0 0.0
2017-May-21 06:00N 37°48' W 122°24'0 0.0
2017-May-21 05:30N 37°48' W 122°24'0 0.0
2017-May-21 05:00N 37°48' W 122°24'0 0.0
2017-May-21 04:30N 37°48' W 122°24'0 0.0
2017-May-21 04:00N 37°48' W 122°24'0 0.0
2017-May-21 03:30N 37°48' W 122°24'0 0.0
2017-May-21 03:00N 37°48' W 122°24'0 0.0
2017-May-21 02:30N 37°48' W 122°24'0 0.0
2017-May-21 02:00N 37°48' W 122°24'2 3.6
2017-May-21 01:30N 37°50' W 122°24'5 9.5
2017-May-21 01:00N 37°55' W 122°25'1 2.1
2017-May-21 00:30N 37°56' W 122°25'0 0.1
2017-May-21 00:00N 37°56' W 122°25'0 0.0
2017-May-20 23:30N 37°56' W 122°25'0 0.0
2017-May-20 23:00N 37°56' W 122°25'2 3.2
2017-May-20 22:30N 37°54' W 122°25'510.5
2017-May-20 22:00N 37°49' W 122°28'2 4.6
2017-May-20 21:30N 37°49' W 122°31'4 8.7
2017-May-20 21:00N 37°51' W 122°26'4 8.6
2017-May-20 20:30N 37°55' W 122°27'610.5
2017-May-20 19:57N 38°00' W 122°25'4 9.1
2017-May-20 19:30N 38°03' W 122°20'4 8.9
2017-May-20 19:00N 38°04' W 122°15'5 9.0
2017-May-20 18:28N 38°02' W 122°09'1 2.0
2017-May-20 18:00N 38°02' W 122°08'0 0.0
2017-May-20 17:30N 38°02' W 122°08'1 1.4
2017-May-20 17:00N 38°03' W 122°08'0 0.0
2017-May-20 16:30N 38°03' W 122°08'0 0.0
2017-May-20 16:00N 38°03' W 122°08'0 0.0
2017-May-20 15:27N 38°03' W 122°08'0 0.0
2017-May-20 14:49N 38°03' W 122°08'2 2.3
2017-May-20 13:57N 38°03' W 122°05'2 3.0
2017-May-20 13:16N 38°03' W 122°08'0 0.0
2017-May-20 12:52N 38°03' W 122°08'0 0.0
2017-May-20 12:30N 38°03' W 122°08'0 0.0
2017-May-20 11:59N 38°03' W 122°08'0 0.0
2017-May-20 11:03N 38°03' W 122°08'0 0.0
2017-May-20 10:57N 38°03' W 122°08'0 0.0
2017-May-20 10:30N 38°03' W 122°08'0 0.0
2017-May-20 10:00N 38°03' W 122°08'0 0.0
2017-May-20 09:15N 38°03' W 122°08'0 0.0
2017-May-20 09:00N 38°03' W 122°08'0 0.0
2017-May-20 08:30N 38°03' W 122°08'0 0.0
2017-May-20 08:00N 38°03' W 122°08'0 0.0
2017-May-20 07:30N 38°03' W 122°08'0 0.0
2017-May-20 07:00N 38°03' W 122°08'0 0.0
2017-May-20 06:30N 38°03' W 122°08'0 0.0
2017-May-20 06:00N 38°03' W 122°08'0 0.0
2017-May-20 05:30N 38°03' W 122°08'0 0.0
2017-May-20 04:09N 38°03' W 122°08'0 0.4
2017-May-20 04:00N 38°03' W 122°08'12 5.8
2017-May-20 01:59N 38°02' W 121°53'4 7.7
2017-May-20 01:27N 38°04' W 121°58'4 8.0
2017-May-20 00:59N 38°04' W 122°03'3 5.4
2017-May-20 00:27N 38°03' W 122°06'0 0.0
2017-May-20 00:00N 38°03' W 122°06'2 4.1
2017-May-19 23:25N 38°02' W 122°09'3 7.3
2017-May-19 23:00N 38°03' W 122°12'4 7.1
2017-May-19 22:30N 38°03' W 122°17'5 8.1
2017-May-19 21:54N 38°02' W 122°23'3 8.7
2017-May-19 21:30N 37°59' W 122°25'4 8.8
2017-May-19 21:00N 37°55' W 122°25'2 4.3
2017-May-19 20:30N 37°55' W 122°22'0 0.1
2017-May-19 20:00N 37°55' W 122°22'3 5.7
2017-May-19 19:30N 37°53' W 122°25'510.0
2017-May-19 19:00N 37°48' W 122°24'0 0.0
2017-May-19 18:30N 37°48' W 122°24'0 0.0
2017-May-19 18:00N 37°48' W 122°24'0 0.0
2017-May-19 17:30N 37°48' W 122°24'0 0.0
2017-May-19 17:00N 37°48' W 122°24'0 0.0
2017-May-19 16:30N 37°48' W 122°24'0 0.0
2017-May-19 16:00N 37°48' W 122°24'0 0.0
2017-May-19 15:30N 37°48' W 122°24'0 0.6
2017-May-19 15:00N 37°48' W 122°24'2 2.4
2017-May-19 14:00N 37°49' W 122°27'3 5.0
2017-May-19 13:30N 37°48' W 122°24'0 0.0
2017-May-19 13:00N 37°48' W 122°24'0 0.0
2017-May-19 12:30N 37°48' W 122°24'0 0.0
2017-May-19 12:00N 37°48' W 122°24'0 0.0
2017-May-19 11:30N 37°48' W 122°24'0 0.0
2017-May-19 11:00N 37°48' W 122°24'2 4.2
2017-May-19 10:30N 37°48' W 122°21'1 1.9
2017-May-19 10:00N 37°49' W 122°20'0 0.6
2017-May-19 09:30N 37°48' W 122°21'0 0.0
2017-May-19 09:00N 37°48' W 122°21'0 0.0
2017-May-19 08:30N 37°48' W 122°21'0 0.0
2017-May-19 08:00N 37°48' W 122°21'0 0.0
2017-May-19 07:30N 37°48' W 122°21'0 0.0
2017-May-19 07:00N 37°48' W 122°21'0 0.0
2017-May-19 06:30N 37°48' W 122°21'0 0.0
2017-May-19 06:00N 37°48' W 122°21'0 0.0
2017-May-19 05:30N 37°48' W 122°21'0 0.0
2017-May-19 05:00N 37°48' W 122°21'0 0.0
2017-May-19 04:30N 37°48' W 122°21'1 1.1
2017-May-19 04:00N 37°48' W 122°21'2 4.7
2017-May-19 03:31N 37°46' W 122°22'1 2.8
2017-May-19 03:00N 37°47' W 122°23'5 9.5
2017-May-19 02:30N 37°51' W 122°25'5 9.3
2017-May-19 02:00N 37°56' W 122°27'4 8.1
2017-May-19 01:29N 37°60' W 122°25'4 8.5
2017-May-19 01:00N 38°02' W 122°21'4 7.5
2017-May-19 00:30N 38°04' W 122°17'1 1.6
2017-May-19 00:00N 38°03' W 122°16'0 0.1
2017-May-18 23:30N 38°03' W 122°16'1 2.7
2017-May-18 23:00N 38°04' W 122°14'6 0.7
2017-May-18 13:30N 38°03' W 122°06'6 6.1
2017-May-18 12:31N 38°04' W 122°13'0 8.1
2017-May-18 12:30N 38°04' W 122°14'5 9.0
2017-May-18 12:00N 38°03' W 122°19'510.0
2017-May-18 11:29N 38°00' W 122°25'4 9.4
2017-May-18 11:00N 37°56' W 122°27'5 9.7
2017-May-18 10:30N 37°51' W 122°25'3 6.5
2017-May-18 10:00N 37°49' W 122°27'3 5.1
2017-May-18 09:30N 37°48' W 122°30'0 0.3
2017-May-18 09:00N 37°48' W 122°30'3 6.4
2017-May-18 08:30N 37°49' W 122°26'2 3.9
2017-May-18 08:00N 37°48' W 122°24'0 0.0
2017-May-18 07:30N 37°48' W 122°24'0 0.0
2017-May-18 07:00N 37°48' W 122°24'0 0.1
2017-May-18 06:30N 37°48' W 122°24'0 0.1
2017-May-18 06:00N 37°48' W 122°24'0 0.0
2017-May-18 05:30N 37°48' W 122°24'0 0.0
2017-May-18 05:00N 37°48' W 122°24'0 0.0
2017-May-18 04:30N 37°48' W 122°24'0 0.0
2017-May-18 04:00N 37°48' W 122°24'0 0.0
2017-May-18 03:30N 37°48' W 122°24'0 0.0
2017-May-18 03:00N 37°48' W 122°24'0 0.0
2017-May-18 02:30N 37°48' W 122°24'0 0.0
2017-May-18 02:00N 37°48' W 122°24'4 7.1
2017-May-18 01:30N 37°49' W 122°20'1 1.8
2017-May-18 01:00N 37°48' W 122°20'2 3.3
2017-May-18 00:30N 37°48' W 122°18'1 1.7
2017-May-18 00:01N 37°48' W 122°19'0 0.0
2017-May-17 23:30N 37°48' W 122°19'0 0.0
2017-May-17 23:00N 37°48' W 122°19'2 3.1
2017-May-17 22:30N 37°48' W 122°21'2 4.3
2017-May-17 22:00N 37°48' W 122°24'0 0.0
2017-May-17 21:30N 37°48' W 122°24'0 0.0
2017-May-17 21:00N 37°48' W 122°24'0 0.0
2017-May-17 20:30N 37°48' W 122°24'0 0.0
2017-May-17 20:00N 37°48' W 122°24'0 0.0
2017-May-17 19:30N 37°48' W 122°24'0 0.0
2017-May-17 19:00N 37°48' W 122°24'0 0.0
2017-May-17 18:30N 37°48' W 122°24'0 0.0
2017-May-17 18:00N 37°48' W 122°24'0 0.0
2017-May-17 17:30N 37°48' W 122°24'0 0.0
2017-May-17 17:00N 37°48' W 122°24'0 0.0
2017-May-17 16:30N 37°48' W 122°24'0 0.0
2017-May-17 16:00N 37°48' W 122°24'2 3.4
2017-May-17 15:30N 37°50' W 122°24'611.4
2017-May-17 15:00N 37°55' W 122°25'610.7
2017-May-17 14:29N 38°01' W 122°24'7 6.7
2017-May-17 13:28N 38°03' W 122°16'0 0.0
2017-May-17 12:57N 38°03' W 122°16'0 0.0
2017-May-17 12:30N 38°03' W 122°16'0 0.5
2017-May-17 11:59N 38°04' W 122°16'0 0.6
2017-May-17 11:28N 38°04' W 122°16'6 9.5
2017-May-17 10:53N 38°02' W 122°09'0 0.0
2017-May-17 01:46N 38°02' W 122°09'1 0.2
2017-May-16 22:25N 38°02' W 122°08'1 1.4
2017-May-16 21:39N 38°02' W 122°09'1 0.0
2017-May-16 02:06N 38°02' W 122°08'0 0.0
2017-May-16 01:58N 38°02' W 122°08'0 0.0
2017-May-16 01:27N 38°02' W 122°08'0 0.0
2017-May-16 01:00N 38°02' W 122°08'0 0.0
2017-May-16 00:24N 38°02' W 122°08'0 0.0
2017-May-16 00:00N 38°02' W 122°08'  
Track history (hours):
 
Tides and Currents Weather Stations Pressure Air Temp Water Temp Dewpoint Dewpoint Depression Visibility Wind Speed Wind Dir Waves Ship Positions

Delta Billie

Owner: Baydelta Maritime, San Francicso, CA. More information available from US FCC via Universal Licensing System and Coast Guard Vessel Documentation Center.

Last reported at 2017-May-25 16:41 UTC. Time now 2017-May-26 00:00 UTC.
Position N 38°03' W 122°11'.

Length 30 m; draft 5.5 m.

Type: Towing. MMSI: 367401030.

Date/timePositionNaut miles runAvg speedWind from/ knotsBaromVisibWave heightAir tempDewpointWater temp
2017-May-25 16:41N 38°03' W 122°11'2 8.0
2017-May-25 16:27N 38°04' W 122°13'4 8.0
2017-May-25 15:59N 38°03' W 122°18'5 8.0
2017-May-25 15:19N 38°01' W 122°24'3 8.4
2017-May-25 15:00N 37°59' W 122°26'4 8.1
2017-May-25 14:30N 37°55' W 122°25'7 7.3
2017-May-25 13:30N 37°48' W 122°20'1 1.1
2017-May-25 13:00N 37°49' W 122°20'1 1.8
2017-May-25 12:31N 37°48' W 122°21'1 2.4
2017-May-25 12:01N 37°48' W 122°20'1 1.1
2017-May-25 11:31N 37°48' W 122°19'3 5.0
2017-May-25 11:00N 37°48' W 122°22'2 3.0
2017-May-25 10:30N 37°48' W 122°24'0 0.0
2017-May-25 10:00N 37°48' W 122°24'0 0.0
2017-May-25 09:30N 37°48' W 122°24'0 0.0
2017-May-25 09:00N 37°48' W 122°24'0 0.0
2017-May-25 08:30N 37°48' W 122°24'0 0.0
2017-May-25 08:00N 37°48' W 122°24'0 0.0
2017-May-25 07:30N 37°48' W 122°24'0 0.0
2017-May-25 07:00N 37°48' W 122°24'0 0.0
2017-May-25 06:30N 37°48' W 122°24'0 0.0
2017-May-25 06:00N 37°48' W 122°24'0 0.0
2017-May-25 05:30N 37°48' W 122°24'0 0.0
2017-May-25 05:00N 37°48' W 122°24'0 0.0
2017-May-25 04:30N 37°48' W 122°24'0 0.0
2017-May-25 04:00N 37°48' W 122°24'0 0.0
2017-May-25 03:30N 37°48' W 122°24'0 0.0
2017-May-25 03:00N 37°48' W 122°24'0 0.0
2017-May-25 02:30N 37°48' W 122°24'0 0.2
2017-May-25 02:00N 37°48' W 122°24'0 0.9
2017-May-25 01:31N 37°48' W 122°23'1 1.9
2017-May-25 01:00N 37°49' W 122°23'1 2.3
2017-May-25 00:30N 37°49' W 122°24'1 1.3
2017-May-25 00:00N 37°48' W 122°24'0 0.1
2017-May-24 23:30N 37°48' W 122°24'0 0.0
2017-May-24 23:00N 37°48' W 122°24'0 0.0
2017-May-24 22:30N 37°48' W 122°24'0 0.0
2017-May-24 22:00N 37°48' W 122°24'0 0.0
2017-May-24 21:30N 37°48' W 122°24'0 0.0
2017-May-24 21:00N 37°48' W 122°24'0 0.0
2017-May-24 20:30N 37°48' W 122°24'0 0.0
2017-May-24 20:00N 37°48' W 122°24'0 0.0
2017-May-24 19:30N 37°48' W 122°24'0 0.0
2017-May-24 19:00N 37°48' W 122°24'0 0.0
2017-May-24 18:30N 37°48' W 122°24'0 0.0
2017-May-24 18:00N 37°48' W 122°24'0 0.0
2017-May-24 17:30N 37°48' W 122°24'0 0.0
2017-May-24 17:00N 37°48' W 122°24'0 0.0
2017-May-24 16:30N 37°48' W 122°24'0 0.0
2017-May-24 16:00N 37°48' W 122°24'0 0.0
2017-May-24 15:30N 37°48' W 122°24'0 0.0
2017-May-24 15:00N 37°48' W 122°24'1 2.7
2017-May-24 14:30N 37°48' W 122°22'4 3.9
2017-May-24 13:30N 37°48' W 122°17'2 3.2
2017-May-24 13:00N 37°48' W 122°19'2 4.5
2017-May-24 12:30N 37°47' W 122°22'1 1.1
2017-May-24 12:00N 37°47' W 122°23'0 0.8
2017-May-24 11:30N 37°47' W 122°23'0 0.0
2017-May-24 11:00N 37°47' W 122°23'0 0.4
2017-May-24 10:31N 37°47' W 122°23'4 8.5
2017-May-24 10:00N 37°52' W 122°24'612.7
2017-May-24 09:30N 37°58' W 122°26'611.4
2017-May-24 09:00N 38°02' W 122°21'510.1
2017-May-24 08:30N 38°04' W 122°15'5 8.5
2017-May-24 07:56N 38°02' W 122°09'1 2.6
2017-May-24 07:30N 38°02' W 122°08'0 0.1
2017-May-24 07:00N 38°02' W 122°08'2 0.7
2017-May-24 04:02N 38°03' W 122°10'1 7.5
2017-May-24 03:56N 38°03' W 122°11'3 6.8
2017-May-24 03:28N 38°04' W 122°15'4 7.5
2017-May-24 02:59N 38°03' W 122°20'4 8.0
2017-May-24 02:30N 38°01' W 122°24'5 9.3
2017-May-24 02:00N 37°57' W 122°27'5 9.3
2017-May-24 01:30N 37°52' W 122°25'510.1
2017-May-24 01:00N 37°48' W 122°23'3 6.8
2017-May-24 00:31N 37°45' W 122°21'0 0.2
2017-May-24 00:00N 37°45' W 122°21'3 5.7
2017-May-23 23:30N 37°47' W 122°23'1 2.4
2017-May-23 23:00N 37°48' W 122°24'0 0.0
2017-May-23 22:30N 37°48' W 122°24'0 0.0
2017-May-23 22:00N 37°48' W 122°24'0 0.0
2017-May-23 21:30N 37°48' W 122°24'0 0.0
2017-May-23 21:00N 37°48' W 122°24'0 0.0
2017-May-23 20:30N 37°48' W 122°24'0 0.0
2017-May-23 20:00N 37°48' W 122°24'0 0.0
2017-May-23 19:30N 37°48' W 122°24'0 0.0
2017-May-23 19:00N 37°48' W 122°24'0 0.0
2017-May-23 18:30N 37°48' W 122°24'3 5.3
2017-May-23 18:00N 37°51' W 122°24'4 7.3
2017-May-23 17:29N 37°55' W 122°24'2 4.0
2017-May-23 17:00N 37°55' W 122°22'0 0.0
2017-May-23 16:30N 37°55' W 122°22'0 0.0
2017-May-23 16:00N 37°55' W 122°22'0 0.0
2017-May-23 15:30N 37°55' W 122°22'0 0.0
2017-May-23 15:00N 37°55' W 122°22'2 4.4
2017-May-23 14:30N 37°55' W 122°25'6 6.5
2017-May-23 13:30N 37°48' W 122°24'1 1.7
2017-May-23 13:00N 37°48' W 122°23'3 5.4
2017-May-23 12:30N 37°45' W 122°23'0 0.2
2017-May-23 12:00N 37°45' W 122°23'3 5.7
2017-May-23 11:30N 37°48' W 122°23'1 1.3
2017-May-23 11:00N 37°48' W 122°24'0 0.0
2017-May-23 10:30N 37°48' W 122°24'0 0.0
2017-May-23 10:00N 37°48' W 122°24'0 0.0
2017-May-23 09:30N 37°48' W 122°24'0 0.0
2017-May-23 09:00N 37°48' W 122°24'0 0.0
2017-May-23 08:30N 37°48' W 122°24'0 0.0
2017-May-23 08:00N 37°48' W 122°24'0 0.0
2017-May-23 07:30N 37°48' W 122°24'0 0.0
2017-May-23 07:00N 37°48' W 122°24'0 0.0
2017-May-23 06:30N 37°48' W 122°24'0 0.0
2017-May-23 06:00N 37°48' W 122°24'0 0.0
2017-May-23 05:30N 37°48' W 122°24'0 0.0
2017-May-23 05:00N 37°48' W 122°24'0 0.0
2017-May-23 04:30N 37°48' W 122°24'0 0.0
2017-May-23 04:00N 37°48' W 122°24'0 0.0
2017-May-23 03:30N 37°48' W 122°24'0 0.0
2017-May-23 03:00N 37°48' W 122°24'0 0.0
2017-May-23 02:30N 37°48' W 122°24'0 0.0
2017-May-23 02:00N 37°48' W 122°24'0 0.0
2017-May-23 01:30N 37°48' W 122°24'0 0.0
2017-May-23 01:00N 37°48' W 122°24'0 0.0
2017-May-23 00:30N 37°48' W 122°24'0 0.0
2017-May-23 00:00N 37°48' W 122°24'0 0.0
2017-May-22 23:30N 37°48' W 122°24'0 0.0
2017-May-22 23:00N 37°48' W 122°24'3 7.0
2017-May-22 22:30N 37°49' W 122°20'0 0.2
2017-May-22 22:00N 37°49' W 122°20'1 1.8
2017-May-22 21:30N 37°48' W 122°21'0 0.0
2017-May-22 21:00N 37°48' W 122°21'0 0.0
2017-May-22 20:30N 37°48' W 122°21'1 1.4
2017-May-22 20:00N 37°49' W 122°21'4 7.0
2017-May-22 19:30N 37°52' W 122°24'4 8.8
2017-May-22 19:00N 37°56' W 122°26'4 8.6
2017-May-22 18:30N 38°00' W 122°25'4 7.8
2017-May-22 18:00N 38°02' W 122°21'4 7.9
2017-May-22 17:30N 38°03' W 122°16'0 0.6
2017-May-22 17:00N 38°03' W 122°16'0 0.1
2017-May-22 16:30N 38°03' W 122°16'1 2.1
2017-May-22 15:59N 38°03' W 122°17'5 9.2
2017-May-22 15:29N 38°02' W 122°22'610.7
2017-May-22 14:54N 37°56' W 122°27'7 7.5
2017-May-22 14:00N 37°50' W 122°28'2 4.8
2017-May-22 13:30N 37°48' W 122°30'0 0.9
2017-May-22 13:00N 37°48' W 122°30'3 6.3
2017-May-22 12:30N 37°49' W 122°26'2 4.3
2017-May-22 12:00N 37°48' W 122°24'0 0.0
2017-May-22 11:30N 37°48' W 122°24'0 0.0
2017-May-22 11:00N 37°48' W 122°24'0 0.0
2017-May-22 10:30N 37°48' W 122°24'0 0.1
2017-May-22 10:00N 37°48' W 122°24'0 0.1
2017-May-22 09:30N 37°48' W 122°24'0 0.0
2017-May-22 09:00N 37°48' W 122°24'0 0.0
2017-May-22 08:30N 37°48' W 122°24'0 0.0
2017-May-22 08:00N 37°48' W 122°24'0 0.0
2017-May-22 07:30N 37°48' W 122°24'0 0.0
2017-May-22 07:00N 37°48' W 122°24'0 0.0
2017-May-22 06:30N 37°48' W 122°24'0 0.0
2017-May-22 06:00N 37°48' W 122°24'0 0.0
2017-May-22 05:30N 37°48' W 122°24'0 0.0
2017-May-22 05:00N 37°48' W 122°24'0 0.0
2017-May-22 04:30N 37°48' W 122°24'0 0.0
2017-May-22 04:00N 37°48' W 122°24'0 0.0
2017-May-22 03:30N 37°48' W 122°24'0 0.0
2017-May-22 03:00N 37°48' W 122°24'0 0.0
2017-May-22 02:30N 37°48' W 122°24'0 0.0
2017-May-22 02:00N 37°48' W 122°24'0 0.0
2017-May-22 01:30N 37°48' W 122°24'0 0.0
2017-May-22 01:00N 37°48' W 122°24'0 0.0
2017-May-22 00:30N 37°48' W 122°24'0 0.0
2017-May-22 00:00N 37°48' W 122°24'0 0.0
2017-May-21 23:30N 37°48' W 122°24'0 0.0
2017-May-21 23:00N 37°48' W 122°24'0 0.0
2017-May-21 22:30N 37°48' W 122°24'0 0.0
2017-May-21 22:00N 37°48' W 122°24'0 0.0
2017-May-21 21:30N 37°48' W 122°24'0 0.0
2017-May-21 21:00N 37°48' W 122°24'0 0.0
2017-May-21 20:30N 37°48' W 122°24'0 0.0
2017-May-21 20:00N 37°48' W 122°24'0 0.0
2017-May-21 19:30N 37°48' W 122°24'0 0.0
2017-May-21 19:00N 37°48' W 122°24'0 0.0
2017-May-21 18:30N 37°48' W 122°24'0 0.0
2017-May-21 18:00N 37°48' W 122°24'0 0.0
2017-May-21 17:30N 37°48' W 122°24'0 0.0
2017-May-21 17:00N 37°48' W 122°24'0 0.0
2017-May-21 16:30N 37°48' W 122°24'0 0.0
2017-May-21 16:00N 37°48' W 122°24'0 0.0
2017-May-21 15:30N 37°48' W 122°24'0 0.0
2017-May-21 15:00N 37°48' W 122°24'0 0.0
2017-May-21 14:00N 37°48' W 122°24'3 5.6
2017-May-21 13:30N 37°48' W 122°20'1 1.2
2017-May-21 13:00N 37°49' W 122°20'1 2.7
2017-May-21 12:31N 37°48' W 122°21'2 3.3
2017-May-21 12:00N 37°48' W 122°23'0 1.0
2017-May-21 11:30N 37°48' W 122°24'0 0.0
2017-May-21 11:00N 37°48' W 122°24'0 0.0
2017-May-21 10:30N 37°48' W 122°24'0 0.0
2017-May-21 10:00N 37°48' W 122°24'0 0.0
2017-May-21 09:30N 37°48' W 122°24'0 0.0
2017-May-21 09:00N 37°48' W 122°24'0 0.0
2017-May-21 08:30N 37°48' W 122°24'0 0.0
2017-May-21 08:00N 37°48' W 122°24'0 0.0
2017-May-21 07:30N 37°48' W 122°24'0 0.0
2017-May-21 07:00N 37°48' W 122°24'0 0.0
2017-May-21 06:30N 37°48' W 122°24'0 0.0
2017-May-21 06:00N 37°48' W 122°24'0 0.0
2017-May-21 05:30N 37°48' W 122°24'0 0.0
2017-May-21 05:00N 37°48' W 122°24'0 0.0
2017-May-21 04:30N 37°48' W 122°24'0 0.0
2017-May-21 04:00N 37°48' W 122°24'0 0.0
2017-May-21 03:30N 37°48' W 122°24'0 0.0
2017-May-21 03:00N 37°48' W 122°24'0 0.0
2017-May-21 02:30N 37°48' W 122°24'0 0.0
2017-May-21 02:00N 37°48' W 122°24'2 3.6
2017-May-21 01:30N 37°50' W 122°24'5 9.5
2017-May-21 01:00N 37°55' W 122°25'1 2.1
2017-May-21 00:30N 37°56' W 122°25'0 0.1
2017-May-21 00:00N 37°56' W 122°25'0 0.0
2017-May-20 23:30N 37°56' W 122°25'0 0.0
2017-May-20 23:00N 37°56' W 122°25'2 3.2
2017-May-20 22:30N 37°54' W 122°25'510.5
2017-May-20 22:00N 37°49' W 122°28'2 4.6
2017-May-20 21:30N 37°49' W 122°31'4 8.7
2017-May-20 21:00N 37°51' W 122°26'4 8.6
2017-May-20 20:30N 37°55' W 122°27'610.5
2017-May-20 19:57N 38°00' W 122°25'4 9.1
2017-May-20 19:30N 38°03' W 122°20'4 8.9
2017-May-20 19:00N 38°04' W 122°15'5 9.0
2017-May-20 18:28N 38°02' W 122°09'1 2.0
2017-May-20 18:00N 38°02' W 122°08'0 0.0
2017-May-20 17:30N 38°02' W 122°08'1 1.4
2017-May-20 17:00N 38°03' W 122°08'0 0.0
2017-May-20 16:30N 38°03' W 122°08'0 0.0
2017-May-20 16:00N 38°03' W 122°08'0 0.0
2017-May-20 15:27N 38°03' W 122°08'0 0.0
2017-May-20 14:49N 38°03' W 122°08'2 2.3
2017-May-20 13:57N 38°03' W 122°05'2 3.0
2017-May-20 13:16N 38°03' W 122°08'0 0.0
2017-May-20 12:52N 38°03' W 122°08'0 0.0
2017-May-20 12:30N 38°03' W 122°08'0 0.0
2017-May-20 11:59N 38°03' W 122°08'0 0.0
2017-May-20 11:03N 38°03' W 122°08'0 0.0
2017-May-20 10:57N 38°03' W 122°08'0 0.0
2017-May-20 10:30N 38°03' W 122°08'0 0.0
2017-May-20 10:00N 38°03' W 122°08'0 0.0
2017-May-20 09:15N 38°03' W 122°08'0 0.0
2017-May-20 09:00N 38°03' W 122°08'0 0.0
2017-May-20 08:30N 38°03' W 122°08'0 0.0
2017-May-20 08:00N 38°03' W 122°08'0 0.0
2017-May-20 07:30N 38°03' W 122°08'0 0.0
2017-May-20 07:00N 38°03' W 122°08'0 0.0
2017-May-20 06:30N 38°03' W 122°08'0 0.0
2017-May-20 06:00N 38°03' W 122°08'0 0.0
2017-May-20 05:30N 38°03' W 122°08'0 0.0
2017-May-20 04:09N 38°03' W 122°08'0 0.4
2017-May-20 04:00N 38°03' W 122°08'12 5.8
2017-May-20 01:59N 38°02' W 121°53'4 7.7
2017-May-20 01:27N 38°04' W 121°58'4 8.0
2017-May-20 00:59N 38°04' W 122°03'3 5.4
2017-May-20 00:27N 38°03' W 122°06'0 0.0
2017-May-20 00:00N 38°03' W 122°06'2 4.1
2017-May-19 23:25N 38°02' W 122°09'3 7.3
2017-May-19 23:00N 38°03' W 122°12'4 7.1
2017-May-19 22:30N 38°03' W 122°17'5 8.1
2017-May-19 21:54N 38°02' W 122°23'3 8.7
2017-May-19 21:30N 37°59' W 122°25'4 8.8
2017-May-19 21:00N 37°55' W 122°25'2 4.3
2017-May-19 20:30N 37°55' W 122°22'0 0.1
2017-May-19 20:00N 37°55' W 122°22'3 5.7
2017-May-19 19:30N 37°53' W 122°25'510.0
2017-May-19 19:00N 37°48' W 122°24'0 0.0
2017-May-19 18:30N 37°48' W 122°24'0 0.0
2017-May-19 18:00N 37°48' W 122°24'0 0.0
2017-May-19 17:30N 37°48' W 122°24'0 0.0
2017-May-19 17:00N 37°48' W 122°24'0 0.0
2017-May-19 16:30N 37°48' W 122°24'0 0.0
2017-May-19 16:00N 37°48' W 122°24'0 0.0
2017-May-19 15:30N 37°48' W 122°24'0 0.6
2017-May-19 15:00N 37°48' W 122°24'2 2.4
2017-May-19 14:00N 37°49' W 122°27'3 5.0
2017-May-19 13:30N 37°48' W 122°24'0 0.0
2017-May-19 13:00N 37°48' W 122°24'0 0.0
2017-May-19 12:30N 37°48' W 122°24'0 0.0
2017-May-19 12:00N 37°48' W 122°24'0 0.0
2017-May-19 11:30N 37°48' W 122°24'0 0.0
2017-May-19 11:00N 37°48' W 122°24'2 4.2
2017-May-19 10:30N 37°48' W 122°21'1 1.9
2017-May-19 10:00N 37°49' W 122°20'0 0.6
2017-May-19 09:30N 37°48' W 122°21'0 0.0
2017-May-19 09:00N 37°48' W 122°21'0 0.0
2017-May-19 08:30N 37°48' W 122°21'0 0.0
2017-May-19 08:00N 37°48' W 122°21'0 0.0
2017-May-19 07:30N 37°48' W 122°21'0 0.0
2017-May-19 07:00N 37°48' W 122°21'0 0.0
2017-May-19 06:30N 37°48' W 122°21'0 0.0
2017-May-19 06:00N 37°48' W 122°21'0 0.0
2017-May-19 05:30N 37°48' W 122°21'0 0.0
2017-May-19 05:00N 37°48' W 122°21'0 0.0
2017-May-19 04:30N 37°48' W 122°21'1 1.1
2017-May-19 04:00N 37°48' W 122°21'2 4.7
2017-May-19 03:31N 37°46' W 122°22'1 2.8
2017-May-19 03:00N 37°47' W 122°23'5 9.5
2017-May-19 02:30N 37°51' W 122°25'5 9.3
2017-May-19 02:00N 37°56' W 122°27'4 8.1
2017-May-19 01:29N 37°60' W 122°25'4 8.5
2017-May-19 01:00N 38°02' W 122°21'4 7.5
2017-May-19 00:30N 38°04' W 122°17'1 1.6
2017-May-19 00:00N 38°03' W 122°16'0 0.1
2017-May-18 23:30N 38°03' W 122°16'1 2.7
2017-May-18 23:00N 38°04' W 122°14'6 0.7
2017-May-18 13:30N 38°03' W 122°06'6 6.1
2017-May-18 12:31N 38°04' W 122°13'0 8.1
2017-May-18 12:30N 38°04' W 122°14'5 9.0
2017-May-18 12:00N 38°03' W 122°19'510.0
2017-May-18 11:29N 38°00' W 122°25'4 9.4
2017-May-18 11:00N 37°56' W 122°27'5 9.7
2017-May-18 10:30N 37°51' W 122°25'3 6.5
2017-May-18 10:00N 37°49' W 122°27'3 5.1
2017-May-18 09:30N 37°48' W 122°30'0 0.3
2017-May-18 09:00N 37°48' W 122°30'3 6.4
2017-May-18 08:30N 37°49' W 122°26'2 3.9
2017-May-18 08:00N 37°48' W 122°24'0 0.0
2017-May-18 07:30N 37°48' W 122°24'0 0.0
2017-May-18 07:00N 37°48' W 122°24'0 0.1
2017-May-18 06:30N 37°48' W 122°24'0 0.1
2017-May-18 06:00N 37°48' W 122°24'0 0.0
2017-May-18 05:30N 37°48' W 122°24'0 0.0
2017-May-18 05:00N 37°48' W 122°24'0 0.0
2017-May-18 04:30N 37°48' W 122°24'0 0.0
2017-May-18 04:00N 37°48' W 122°24'0 0.0
2017-May-18 03:30N 37°48' W 122°24'0 0.0
2017-May-18 03:00N 37°48' W 122°24'0 0.0
2017-May-18 02:30N 37°48' W 122°24'0 0.0
2017-May-18 02:00N 37°48' W 122°24'4 7.1
2017-May-18 01:30N 37°49' W 122°20'1 1.8
2017-May-18 01:00N 37°48' W 122°20'2 3.3
2017-May-18 00:30N 37°48' W 122°18'1 1.7
2017-May-18 00:01N 37°48' W 122°19'0 0.0
2017-May-17 23:30N 37°48' W 122°19'0 0.0
2017-May-17 23:00N 37°48' W 122°19'2 3.1
2017-May-17 22:30N 37°48' W 122°21'2 4.3
2017-May-17 22:00N 37°48' W 122°24'0 0.0
2017-May-17 21:30N 37°48' W 122°24'0 0.0
2017-May-17 21:00N 37°48' W 122°24'0 0.0
2017-May-17 20:30N 37°48' W 122°24'0 0.0
2017-May-17 20:00N 37°48' W 122°24'0 0.0
2017-May-17 19:30N 37°48' W 122°24'0 0.0
2017-May-17 19:00N 37°48' W 122°24'0 0.0
2017-May-17 18:30N 37°48' W 122°24'0 0.0
2017-May-17 18:00N 37°48' W 122°24'0 0.0
2017-May-17 17:30N 37°48' W 122°24'0 0.0
2017-May-17 17:00N 37°48' W 122°24'0 0.0
2017-May-17 16:30N 37°48' W 122°24'0 0.0
2017-May-17 16:00N 37°48' W 122°24'2 3.4
2017-May-17 15:30N 37°50' W 122°24'611.4
2017-May-17 15:00N 37°55' W 122°25'610.7
2017-May-17 14:29N 38°01' W 122°24'7 6.7
2017-May-17 13:28N 38°03' W 122°16'0 0.0
2017-May-17 12:57N 38°03' W 122°16'0 0.0
2017-May-17 12:30N 38°03' W 122°16'0 0.5
2017-May-17 11:59N 38°04' W 122°16'0 0.6
2017-May-17 11:28N 38°04' W 122°16'6 9.5
2017-May-17 10:53N 38°02' W 122°09'0 0.0
2017-May-17 01:46N 38°02' W 122°09'1 0.2
2017-May-16 22:25N 38°02' W 122°08'1 1.4
2017-May-16 21:39N 38°02' W 122°09'1 0.0
2017-May-16 02:06N 38°02' W 122°08'0 0.0
2017-May-16 01:58N 38°02' W 122°08'0 0.0
2017-May-16 01:27N 38°02' W 122°08'0 0.0
2017-May-16 01:00N 38°02' W 122°08'0 0.0
2017-May-16 00:24N 38°02' W 122°08'0 0.0
2017-May-16 00:00N 38°02' W 122°08'  

Dump ship's entire track history